sensor_id;sensor_type;location;lat;lon;timestamp;temperature;humidity
7762;DHT22;3925;48.636;9.516;2023-05-23T00:01:03;15.60;99.90
7762;DHT22;3925;48.636;9.516;2023-05-23T00:03:31;15.50;99.90
7762;DHT22;3925;48.636;9.516;2023-05-23T00:05:58;15.60;99.90
7762;DHT22;3925;48.636;9.516;2023-05-23T00:08:25;15.60;99.90
7762;DHT22;3925;48.636;9.516;2023-05-23T00:10:53;15.70;99.90
7762;DHT22;3925;48.636;9.516;2023-05-23T00:13:20;15.70;99.90
7762;DHT22;3925;48.636;9.516;2023-05-23T00:15:47;15.80;99.90
7762;DHT22;3925;48.636;9.516;2023-05-23T00:18:14;15.80;99.90
7762;DHT22;3925;48.636;9.516;2023-05-23T00:20:41;15.90;99.90
7762;DHT22;3925;48.636;9.516;2023-05-23T00:23:09;16.00;99.90
7762;DHT22;3925;48.636;9.516;2023-05-23T00:25:38;16.10;99.90
7762;DHT22;3925;48.636;9.516;2023-05-23T00:28:06;16.10;99.90
7762;DHT22;3925;48.636;9.516;2023-05-23T00:30:33;16.10;99.90
7762;DHT22;3925;48.636;9.516;2023-05-23T00:33:00;16.20;99.90
7762;DHT22;3925;48.636;9.516;2023-05-23T00:35:27;16.20;99.90
7762;DHT22;3925;48.636;9.516;2023-05-23T00:37:54;16.30;99.90
7762;DHT22;3925;48.636;9.516;2023-05-23T00:40:21;16.30;99.90
7762;DHT22;3925;48.636;9.516;2023-05-23T00:42:48;16.40;99.90
7762;DHT22;3925;48.636;9.516;2023-05-23T00:45:17;16.40;99.90
7762;DHT22;3925;48.636;9.516;2023-05-23T00:47:45;16.50;99.90
7762;DHT22;3925;48.636;9.516;2023-05-23T00:50:13;16.50;99.90
7762;DHT22;3925;48.636;9.516;2023-05-23T00:52:42;16.40;99.90
7762;DHT22;3925;48.636;9.516;2023-05-23T00:55:09;16.50;99.90
7762;DHT22;3925;48.636;9.516;2023-05-23T00:57:37;16.50;99.90
7762;DHT22;3925;48.636;9.516;2023-05-23T01:00:07;16.50;99.90
7762;DHT22;3925;48.636;9.516;2023-05-23T01:02:38;16.60;99.90
7762;DHT22;3925;48.636;9.516;2023-05-23T01:05:08;16.60;99.90
7762;DHT22;3925;48.636;9.516;2023-05-23T01:07:35;16.60;99.90
7762;DHT22;3925;48.636;9.516;2023-05-23T01:10:03;16.60;99.90
7762;DHT22;3925;48.636;9.516;2023-05-23T01:12:37;16.60;99.90
7762;DHT22;3925;48.636;9.516;2023-05-23T01:15:07;16.60;99.90
7762;DHT22;3925;48.636;9.516;2023-05-23T01:17:43;16.50;99.90
7762;DHT22;3925;48.636;9.516;2023-05-23T01:20:14;16.50;99.90
7762;DHT22;3925;48.636;9.516;2023-05-23T01:23:05;16.60;99.90
7762;DHT22;3925;48.636;9.516;2023-05-23T01:25:43;16.50;99.90
7762;DHT22;3925;48.636;9.516;2023-05-23T01:28:16;16.50;99.90
7762;DHT22;3925;48.636;9.516;2023-05-23T01:30:45;16.60;99.90
7762;DHT22;3925;48.636;9.516;2023-05-23T01:33:15;16.60;99.90
7762;DHT22;3925;48.636;9.516;2023-05-23T01:35:43;16.60;99.90
7762;DHT22;3925;48.636;9.516;2023-05-23T01:38:10;16.60;99.90
7762;DHT22;3925;48.636;9.516;2023-05-23T01:40:37;16.60;99.90
7762;DHT22;3925;48.636;9.516;2023-05-23T01:43:04;16.60;99.90
7762;DHT22;3925;48.636;9.516;2023-05-23T01:45:33;16.50;99.90
7762;DHT22;3925;48.636;9.516;2023-05-23T01:48:01;16.50;99.90
7762;DHT22;3925;48.636;9.516;2023-05-23T01:50:31;16.60;99.90
7762;DHT22;3925;48.636;9.516;2023-05-23T01:52:59;16.60;99.90
7762;DHT22;3925;48.636;9.516;2023-05-23T01:55:26;16.60;99.90
7762;DHT22;3925;48.636;9.516;2023-05-23T01:57:55;16.50;99.90
7762;DHT22;3925;48.636;9.516;2023-05-23T02:00:22;16.50;99.90
7762;DHT22;3925;48.636;9.516;2023-05-23T02:02:51;16.50;99.90
7762;DHT22;3925;48.636;9.516;2023-05-23T02:05:18;16.40;99.90
7762;DHT22;3925;48.636;9.516;2023-05-23T02:07:45;16.50;99.90
7762;DHT22;3925;48.636;9.516;2023-05-23T02:10:12;16.50;99.90
7762;DHT22;3925;48.636;9.516;2023-05-23T02:12:38;16.60;99.90
7762;DHT22;3925;48.636;9.516;2023-05-23T02:15:06;16.60;99.90
7762;DHT22;3925;48.636;9.516;2023-05-23T02:17:33;16.60;99.90
7762;DHT22;3925;48.636;9.516;2023-05-23T02:20:01;16.60;99.90
7762;DHT22;3925;48.636;9.516;2023-05-23T02:22:28;16.60;99.90
7762;DHT22;3925;48.636;9.516;2023-05-23T02:24:55;16.60;99.90
7762;DHT22;3925;48.636;9.516;2023-05-23T02:27:22;16.60;99.90
7762;DHT22;3925;48.636;9.516;2023-05-23T02:29:49;16.60;99.90
7762;DHT22;3925;48.636;9.516;2023-05-23T02:32:16;16.70;99.90
7762;DHT22;3925;48.636;9.516;2023-05-23T02:34:43;16.80;99.90
7762;DHT22;3925;48.636;9.516;2023-05-23T02:37:12;16.80;99.90
7762;DHT22;3925;48.636;9.516;2023-05-23T02:39:39;16.80;99.90
7762;DHT22;3925;48.636;9.516;2023-05-23T02:42:06;16.80;99.90
7762;DHT22;3925;48.636;9.516;2023-05-23T02:44:33;16.80;99.90
7762;DHT22;3925;48.636;9.516;2023-05-23T02:46:59;16.70;99.90
7762;DHT22;3925;48.636;9.516;2023-05-23T02:49:26;16.80;99.90
7762;DHT22;3925;48.636;9.516;2023-05-23T02:51:53;16.80;99.90
7762;DHT22;3925;48.636;9.516;2023-05-23T02:54:21;16.80;99.90
7762;DHT22;3925;48.636;9.516;2023-05-23T02:56:48;16.80;99.90
7762;DHT22;3925;48.636;9.516;2023-05-23T02:59:16;16.70;99.90
7762;DHT22;3925;48.636;9.516;2023-05-23T03:01:43;16.70;99.90
7762;DHT22;3925;48.636;9.516;2023-05-23T03:04:10;16.70;99.90
7762;DHT22;3925;48.636;9.516;2023-05-23T03:06:38;16.60;99.90
7762;DHT22;3925;48.636;9.516;2023-05-23T03:09:07;16.60;99.90
7762;DHT22;3925;48.636;9.516;2023-05-23T03:11:35;16.60;99.90
7762;DHT22;3925;48.636;9.516;2023-05-23T03:14:02;16.60;99.90
7762;DHT22;3925;48.636;9.516;2023-05-23T03:16:29;16.60;99.90
7762;DHT22;3925;48.636;9.516;2023-05-23T03:18:56;16.60;99.90
7762;DHT22;3925;48.636;9.516;2023-05-23T03:21:23;16.70;99.90
7762;DHT22;3925;48.636;9.516;2023-05-23T03:23:50;16.70;99.90
7762;DHT22;3925;48.636;9.516;2023-05-23T03:26:17;16.60;99.90
7762;DHT22;3925;48.636;9.516;2023-05-23T03:28:45;16.70;99.90
7762;DHT22;3925;48.636;9.516;2023-05-23T03:31:12;16.70;99.90
7762;DHT22;3925;48.636;9.516;2023-05-23T03:33:38;16.70;99.90
7762;DHT22;3925;48.636;9.516;2023-05-23T03:36:05;16.70;99.90
7762;DHT22;3925;48.636;9.516;2023-05-23T03:38:32;16.80;99.90
7762;DHT22;3925;48.636;9.516;2023-05-23T03:40:59;16.80;99.90
7762;DHT22;3925;48.636;9.516;2023-05-23T03:43:26;16.60;99.90
7762;DHT22;3925;48.636;9.516;2023-05-23T03:45:54;16.60;99.90
7762;DHT22;3925;48.636;9.516;2023-05-23T03:48:21;16.60;99.90
7762;DHT22;3925;48.636;9.516;2023-05-23T03:50:48;16.60;99.90
7762;DHT22;3925;48.636;9.516;2023-05-23T03:53:14;16.60;99.90
7762;DHT22;3925;48.636;9.516;2023-05-23T03:55:41;16.70;99.90
7762;DHT22;3925;48.636;9.516;2023-05-23T03:58:08;16.70;99.90
7762;DHT22;3925;48.636;9.516;2023-05-23T04:00:35;16.70;99.90
7762;DHT22;3925;48.636;9.516;2023-05-23T04:03:03;16.70;99.90
7762;DHT22;3925;48.636;9.516;2023-05-23T04:05:30;16.70;99.90
7762;DHT22;3925;48.636;9.516;2023-05-23T04:07:57;16.70;99.90
7762;DHT22;3925;48.636;9.516;2023-05-23T04:10:26;16.80;99.90
7762;DHT22;3925;48.636;9.516;2023-05-23T04:12:52;16.70;99.90
7762;DHT22;3925;48.636;9.516;2023-05-23T04:15:21;16.70;99.90
7762;DHT22;3925;48.636;9.516;2023-05-23T04:17:48;16.70;99.90
7762;DHT22;3925;48.636;9.516;2023-05-23T04:20:17;16.80;99.90
7762;DHT22;3925;48.636;9.516;2023-05-23T04:22:44;16.80;99.90
7762;DHT22;3925;48.636;9.516;2023-05-23T04:25:10;16.80;99.90
7762;DHT22;3925;48.636;9.516;2023-05-23T04:27:38;16.80;99.90
7762;DHT22;3925;48.636;9.516;2023-05-23T04:30:06;16.80;99.90
7762;DHT22;3925;48.636;9.516;2023-05-23T04:32:34;16.90;99.90
7762;DHT22;3925;48.636;9.516;2023-05-23T04:35:01;17.00;99.90
7762;DHT22;3925;48.636;9.516;2023-05-23T04:37:30;16.90;99.90
7762;DHT22;3925;48.636;9.516;2023-05-23T04:39:57;16.90;99.90
7762;DHT22;3925;48.636;9.516;2023-05-23T04:42:24;16.80;99.90
7762;DHT22;3925;48.636;9.516;2023-05-23T04:44:52;16.80;99.90
7762;DHT22;3925;48.636;9.516;2023-05-23T04:47:21;16.80;99.90
7762;DHT22;3925;48.636;9.516;2023-05-23T04:49:53;16.80;99.90
7762;DHT22;3925;48.636;9.516;2023-05-23T04:52:20;16.70;99.90
7762;DHT22;3925;48.636;9.516;2023-05-23T04:54:48;16.80;99.90
7762;DHT22;3925;48.636;9.516;2023-05-23T04:57:15;16.80;99.90
7762;DHT22;3925;48.636;9.516;2023-05-23T04:59:42;16.90;99.90
7762;DHT22;3925;48.636;9.516;2023-05-23T05:02:09;16.90;99.90
7762;DHT22;3925;48.636;9.516;2023-05-23T05:04:36;16.80;99.90
7762;DHT22;3925;48.636;9.516;2023-05-23T05:07:03;16.80;99.90
7762;DHT22;3925;48.636;9.516;2023-05-23T05:09:30;16.90;99.90
7762;DHT22;3925;48.636;9.516;2023-05-23T05:11:58;16.90;99.90
7762;DHT22;3925;48.636;9.516;2023-05-23T05:14:25;17.00;99.90
7762;DHT22;3925;48.636;9.516;2023-05-23T05:16:52;17.10;99.90
7762;DHT22;3925;48.636;9.516;2023-05-23T05:19:21;17.10;99.90
7762;DHT22;3925;48.636;9.516;2023-05-23T05:21:48;17.10;99.90
7762;DHT22;3925;48.636;9.516;2023-05-23T05:24:15;17.10;99.90
7762;DHT22;3925;48.636;9.516;2023-05-23T05:26:45;17.10;99.90
7762;DHT22;3925;48.636;9.516;2023-05-23T05:29:14;17.10;99.90
7762;DHT22;3925;48.636;9.516;2023-05-23T05:31:41;17.00;99.90
7762;DHT22;3925;48.636;9.516;2023-05-23T05:34:09;17.10;99.90
7762;DHT22;3925;48.636;9.516;2023-05-23T05:36:37;17.00;99.90
7762;DHT22;3925;48.636;9.516;2023-05-23T05:39:10;17.00;99.90
7762;DHT22;3925;48.636;9.516;2023-05-23T05:41:37;17.00;99.90
7762;DHT22;3925;48.636;9.516;2023-05-23T05:44:03;17.10;99.90
7762;DHT22;3925;48.636;9.516;2023-05-23T05:46:32;17.00;99.90
7762;DHT22;3925;48.636;9.516;2023-05-23T05:48:59;17.10;99.90
7762;DHT22;3925;48.636;9.516;2023-05-23T05:51:25;17.20;99.90
7762;DHT22;3925;48.636;9.516;2023-05-23T05:53:52;17.20;99.90
7762;DHT22;3925;48.636;9.516;2023-05-23T05:56:19;17.30;99.90
7762;DHT22;3925;48.636;9.516;2023-05-23T05:58:47;17.30;99.90
7762;DHT22;3925;48.636;9.516;2023-05-23T06:01:14;17.30;99.90
7762;DHT22;3925;48.636;9.516;2023-05-23T06:03:42;17.30;99.90
7762;DHT22;3925;48.636;9.516;2023-05-23T06:06:09;17.30;99.90
7762;DHT22;3925;48.636;9.516;2023-05-23T06:08:35;17.30;99.90
7762;DHT22;3925;48.636;9.516;2023-05-23T06:11:02;17.20;99.90
7762;DHT22;3925;48.636;9.516;2023-05-23T06:13:29;17.40;99.90
7762;DHT22;3925;48.636;9.516;2023-05-23T06:15:56;17.40;99.90
7762;DHT22;3925;48.636;9.516;2023-05-23T06:18:23;17.40;99.90
7762;DHT22;3925;48.636;9.516;2023-05-23T06:20:52;17.50;99.90
7762;DHT22;3925;48.636;9.516;2023-05-23T06:23:19;17.60;99.90
7762;DHT22;3925;48.636;9.516;2023-05-23T06:25:45;17.70;99.90
7762;DHT22;3925;48.636;9.516;2023-05-23T06:28:12;17.70;99.90
7762;DHT22;3925;48.636;9.516;2023-05-23T06:30:39;17.80;99.90
7762;DHT22;3925;48.636;9.516;2023-05-23T06:33:06;17.90;99.90
7762;DHT22;3925;48.636;9.516;2023-05-23T06:35:33;18.00;99.90
7762;DHT22;3925;48.636;9.516;2023-05-23T06:38:01;18.10;99.90
7762;DHT22;3925;48.636;9.516;2023-05-23T06:40:28;18.20;99.90
7762;DHT22;3925;48.636;9.516;2023-05-23T06:42:54;18.30;99.90
7762;DHT22;3925;48.636;9.516;2023-05-23T06:45:21;18.50;99.90
7762;DHT22;3925;48.636;9.516;2023-05-23T06:47:48;18.70;99.90
7762;DHT22;3925;48.636;9.516;2023-05-23T06:50:15;18.90;99.90
7762;DHT22;3925;48.636;9.516;2023-05-23T06:52:44;18.90;99.90
7762;DHT22;3925;48.636;9.516;2023-05-23T06:55:13;19.00;99.90
7762;DHT22;3925;48.636;9.516;2023-05-23T06:57:43;18.90;99.90
7762;DHT22;3925;48.636;9.516;2023-05-23T07:00:11;19.00;99.90
7762;DHT22;3925;48.636;9.516;2023-05-23T07:02:39;19.00;99.90
7762;DHT22;3925;48.636;9.516;2023-05-23T07:05:06;18.90;99.90
7762;DHT22;3925;48.636;9.516;2023-05-23T07:07:33;18.80;99.90
7762;DHT22;3925;48.636;9.516;2023-05-23T07:10:00;18.80;99.90
7762;DHT22;3925;48.636;9.516;2023-05-23T07:12:28;18.90;99.90
7762;DHT22;3925;48.636;9.516;2023-05-23T07:14:55;18.90;99.90
7762;DHT22;3925;48.636;9.516;2023-05-23T07:17:22;18.90;99.90
7762;DHT22;3925;48.636;9.516;2023-05-23T07:19:49;19.00;99.90
7762;DHT22;3925;48.636;9.516;2023-05-23T07:22:16;18.90;99.90
7762;DHT22;3925;48.636;9.516;2023-05-23T07:24:43;18.80;99.90
7762;DHT22;3925;48.636;9.516;2023-05-23T07:27:10;18.60;99.90
7762;DHT22;3925;48.636;9.516;2023-05-23T07:29:39;18.50;99.90
7762;DHT22;3925;48.636;9.516;2023-05-23T07:32:06;18.50;99.90
7762;DHT22;3925;48.636;9.516;2023-05-23T07:34:33;18.30;99.90
7762;DHT22;3925;48.636;9.516;2023-05-23T07:37:00;18.20;99.90
7762;DHT22;3925;48.636;9.516;2023-05-23T07:39:27;18.10;99.90
7762;DHT22;3925;48.636;9.516;2023-05-23T07:41:53;18.00;99.90
7762;DHT22;3925;48.636;9.516;2023-05-23T07:44:20;17.90;99.90
7762;DHT22;3925;48.636;9.516;2023-05-23T07:46:49;17.90;99.90
7762;DHT22;3925;48.636;9.516;2023-05-23T07:49:15;17.90;99.90
7762;DHT22;3925;48.636;9.516;2023-05-23T07:51:42;17.90;99.90
7762;DHT22;3925;48.636;9.516;2023-05-23T07:54:10;18.10;99.90
7762;DHT22;3925;48.636;9.516;2023-05-23T07:56:36;18.10;99.90
7762;DHT22;3925;48.636;9.516;2023-05-23T07:59:04;18.20;99.90
7762;DHT22;3925;48.636;9.516;2023-05-23T08:01:30;18.10;99.90
7762;DHT22;3925;48.636;9.516;2023-05-23T08:03:59;18.20;99.90
7762;DHT22;3925;48.636;9.516;2023-05-23T08:06:25;18.30;99.90
7762;DHT22;3925;48.636;9.516;2023-05-23T08:08:52;18.30;99.90
7762;DHT22;3925;48.636;9.516;2023-05-23T08:11:19;18.40;99.90
7762;DHT22;3925;48.636;9.516;2023-05-23T08:13:46;18.50;99.90
7762;DHT22;3925;48.636;9.516;2023-05-23T08:16:13;18.70;99.90
7762;DHT22;3925;48.636;9.516;2023-05-23T08:18:40;18.80;99.90
7762;DHT22;3925;48.636;9.516;2023-05-23T08:21:08;18.80;99.90
7762;DHT22;3925;48.636;9.516;2023-05-23T08:23:35;18.80;99.90
7762;DHT22;3925;48.636;9.516;2023-05-23T08:26:02;18.70;99.90
7762;DHT22;3925;48.636;9.516;2023-05-23T08:28:29;18.60;99.90
7762;DHT22;3925;48.636;9.516;2023-05-23T08:30:55;18.50;99.90
7762;DHT22;3925;48.636;9.516;2023-05-23T08:33:22;18.60;99.90
7762;DHT22;3925;48.636;9.516;2023-05-23T08:35:49;18.80;99.90
7762;DHT22;3925;48.636;9.516;2023-05-23T08:38:17;18.70;99.90
7762;DHT22;3925;48.636;9.516;2023-05-23T08:40:49;18.90;99.90
7762;DHT22;3925;48.636;9.516;2023-05-23T08:43:17;19.10;99.90
7762;DHT22;3925;48.636;9.516;2023-05-23T08:45:44;19.00;99.90
7762;DHT22;3925;48.636;9.516;2023-05-23T08:48:12;19.00;99.90
7762;DHT22;3925;48.636;9.516;2023-05-23T08:50:43;19.10;99.90
7762;DHT22;3925;48.636;9.516;2023-05-23T08:53:14;19.10;99.90
7762;DHT22;3925;48.636;9.516;2023-05-23T08:55:47;19.30;99.90
7762;DHT22;3925;48.636;9.516;2023-05-23T08:58:16;19.40;99.90
7762;DHT22;3925;48.636;9.516;2023-05-23T09:00:46;19.50;99.90
7762;DHT22;3925;48.636;9.516;2023-05-23T09:03:12;19.40;99.90
7762;DHT22;3925;48.636;9.516;2023-05-23T09:05:41;19.50;99.90
7762;DHT22;3925;48.636;9.516;2023-05-23T09:08:08;19.50;99.90
7762;DHT22;3925;48.636;9.516;2023-05-23T09:10:35;19.30;99.90
7762;DHT22;3925;48.636;9.516;2023-05-23T09:13:04;19.20;99.90
7762;DHT22;3925;48.636;9.516;2023-05-23T09:15:32;18.90;99.90
7762;DHT22;3925;48.636;9.516;2023-05-23T09:17:59;19.10;99.90
7762;DHT22;3925;48.636;9.516;2023-05-23T09:20:28;19.00;99.90
7762;DHT22;3925;48.636;9.516;2023-05-23T09:22:55;19.00;99.90
7762;DHT22;3925;48.636;9.516;2023-05-23T09:25:22;19.10;99.90
7762;DHT22;3925;48.636;9.516;2023-05-23T09:27:51;18.90;99.90
7762;DHT22;3925;48.636;9.516;2023-05-23T09:30:20;18.80;99.90
7762;DHT22;3925;48.636;9.516;2023-05-23T09:32:57;18.90;99.90
7762;DHT22;3925;48.636;9.516;2023-05-23T09:35:27;18.90;99.90
7762;DHT22;3925;48.636;9.516;2023-05-23T09:37:56;18.90;99.90
7762;DHT22;3925;48.636;9.516;2023-05-23T09:40:29;18.90;99.90
7762;DHT22;3925;48.636;9.516;2023-05-23T09:43:01;18.60;99.90
7762;DHT22;3925;48.636;9.516;2023-05-23T09:45:30;18.60;99.90
7762;DHT22;3925;48.636;9.516;2023-05-23T09:47:57;18.60;99.90
7762;DHT22;3925;48.636;9.516;2023-05-23T09:50:30;18.70;99.90
7762;DHT22;3925;48.636;9.516;2023-05-23T09:52:58;18.50;99.90
7762;DHT22;3925;48.636;9.516;2023-05-23T09:55:25;18.50;99.90
7762;DHT22;3925;48.636;9.516;2023-05-23T09:57:53;18.70;99.90
7762;DHT22;3925;48.636;9.516;2023-05-23T10:00:22;18.70;99.90
7762;DHT22;3925;48.636;9.516;2023-05-23T10:02:59;18.70;99.90
7762;DHT22;3925;48.636;9.516;2023-05-23T10:05:32;18.90;99.90
7762;DHT22;3925;48.636;9.516;2023-05-23T10:08:01;19.20;99.90
7762;DHT22;3925;48.636;9.516;2023-05-23T10:10:32;19.20;99.90
7762;DHT22;3925;48.636;9.516;2023-05-23T10:13:01;18.90;99.90
7762;DHT22;3925;48.636;9.516;2023-05-23T10:15:34;18.90;99.90
7762;DHT22;3925;48.636;9.516;2023-05-23T10:18:06;19.00;99.90
7762;DHT22;3925;48.636;9.516;2023-05-23T10:20:35;19.30;99.90
7762;DHT22;3925;48.636;9.516;2023-05-23T10:23:05;19.30;99.90
7762;DHT22;3925;48.636;9.516;2023-05-23T10:25:32;19.20;99.90
7762;DHT22;3925;48.636;9.516;2023-05-23T10:28:01;19.30;99.90
7762;DHT22;3925;48.636;9.516;2023-05-23T10:30:29;19.10;99.90
7762;DHT22;3925;48.636;9.516;2023-05-23T10:32:56;19.20;99.90
7762;DHT22;3925;48.636;9.516;2023-05-23T10:35:36;19.10;99.90
7762;DHT22;3925;48.636;9.516;2023-05-23T10:38:09;19.20;99.90
7762;DHT22;3925;48.636;9.516;2023-05-23T10:40:48;19.40;99.90
7762;DHT22;3925;48.636;9.516;2023-05-23T10:43:21;19.70;99.90
7762;DHT22;3925;48.636;9.516;2023-05-23T10:45:49;19.80;99.90
7762;DHT22;3925;48.636;9.516;2023-05-23T10:48:21;20.00;99.90
7762;DHT22;3925;48.636;9.516;2023-05-23T10:51:02;20.30;99.90
7762;DHT22;3925;48.636;9.516;2023-05-23T10:53:30;20.60;99.90
7762;DHT22;3925;48.636;9.516;2023-05-23T10:55:57;21.20;99.90
7762;DHT22;3925;48.636;9.516;2023-05-23T10:58:25;21.50;99.90
7762;DHT22;3925;48.636;9.516;2023-05-23T11:00:55;21.90;99.90
7762;DHT22;3925;48.636;9.516;2023-05-23T11:03:35;22.10;99.90
7762;DHT22;3925;48.636;9.516;2023-05-23T11:06:04;22.70;99.90
7762;DHT22;3925;48.636;9.516;2023-05-23T11:08:38;23.00;99.90
7762;DHT22;3925;48.636;9.516;2023-05-23T11:11:07;22.90;99.90
7762;DHT22;3925;48.636;9.516;2023-05-23T11:13:54;23.20;99.90
7762;DHT22;3925;48.636;9.516;2023-05-23T11:16:26;23.70;99.90
7762;DHT22;3925;48.636;9.516;2023-05-23T11:19:20;23.90;99.90
7762;DHT22;3925;48.636;9.516;2023-05-23T11:21:57;23.50;99.90
7762;DHT22;3925;48.636;9.516;2023-05-23T11:24:47;23.90;99.90
7762;DHT22;3925;48.636;9.516;2023-05-23T11:27:16;24.10;99.90
7762;DHT22;3925;48.636;9.516;2023-05-23T11:29:45;24.10;99.90
7762;DHT22;3925;48.636;9.516;2023-05-23T11:32:22;24.70;99.90
7762;DHT22;3925;48.636;9.516;2023-05-23T11:34:49;24.50;99.90
7762;DHT22;3925;48.636;9.516;2023-05-23T11:37:17;24.90;99.90
7762;DHT22;3925;48.636;9.516;2023-05-23T11:39:44;25.00;99.90
7762;DHT22;3925;48.636;9.516;2023-05-23T11:42:11;25.40;99.90
7762;DHT22;3925;48.636;9.516;2023-05-23T11:44:38;25.60;99.90
7762;DHT22;3925;48.636;9.516;2023-05-23T11:47:05;25.10;99.90
7762;DHT22;3925;48.636;9.516;2023-05-23T11:49:34;25.40;99.90
7762;DHT22;3925;48.636;9.516;2023-05-23T11:52:03;25.10;99.90
7762;DHT22;3925;48.636;9.516;2023-05-23T11:54:32;24.60;99.90
7762;DHT22;3925;48.636;9.516;2023-05-23T11:57:00;24.10;99.90
7762;DHT22;3925;48.636;9.516;2023-05-23T11:59:28;23.90;99.90
7762;DHT22;3925;48.636;9.516;2023-05-23T12:01:55;23.80;99.90
7762;DHT22;3925;48.636;9.516;2023-05-23T12:04:24;23.80;99.90
7762;DHT22;3925;48.636;9.516;2023-05-23T12:06:51;23.40;99.90
7762;DHT22;3925;48.636;9.516;2023-05-23T12:09:18;23.20;99.90
7762;DHT22;3925;48.636;9.516;2023-05-23T12:11:48;22.80;99.90
7762;DHT22;3925;48.636;9.516;2023-05-23T12:14:16;23.30;99.90
7762;DHT22;3925;48.636;9.516;2023-05-23T12:16:44;23.80;99.90
7762;DHT22;3925;48.636;9.516;2023-05-23T12:19:12;23.90;99.90
7762;DHT22;3925;48.636;9.516;2023-05-23T12:21:41;24.30;99.90
7762;DHT22;3925;48.636;9.516;2023-05-23T12:24:15;24.60;99.90
7762;DHT22;3925;48.636;9.516;2023-05-23T12:26:51;24.50;99.90
7762;DHT22;3925;48.636;9.516;2023-05-23T12:29:19;24.30;99.90
7762;DHT22;3925;48.636;9.516;2023-05-23T12:31:50;23.80;99.90
7762;DHT22;3925;48.636;9.516;2023-05-23T12:34:19;23.60;99.90
7762;DHT22;3925;48.636;9.516;2023-05-23T12:36:46;23.60;99.90
7762;DHT22;3925;48.636;9.516;2023-05-23T12:39:14;23.90;99.90
7762;DHT22;3925;48.636;9.516;2023-05-23T12:41:41;23.30;99.90
7762;DHT22;3925;48.636;9.516;2023-05-23T12:44:14;23.10;99.90
7762;DHT22;3925;48.636;9.516;2023-05-23T12:46:42;23.10;99.90
7762;DHT22;3925;48.636;9.516;2023-05-23T12:49:09;23.40;99.90
7762;DHT22;3925;48.636;9.516;2023-05-23T12:51:36;23.40;99.90
7762;DHT22;3925;48.636;9.516;2023-05-23T12:54:03;23.20;99.90
7762;DHT22;3925;48.636;9.516;2023-05-23T12:56:30;23.20;99.90
7762;DHT22;3925;48.636;9.516;2023-05-23T12:58:57;23.30;99.90
7762;DHT22;3925;48.636;9.516;2023-05-23T13:01:27;23.20;99.90
7762;DHT22;3925;48.636;9.516;2023-05-23T13:03:54;23.00;99.90
7762;DHT22;3925;48.636;9.516;2023-05-23T13:06:21;23.00;99.90
7762;DHT22;3925;48.636;9.516;2023-05-23T13:08:48;22.60;99.90
7762;DHT22;3925;48.636;9.516;2023-05-23T13:11:16;22.60;99.90
7762;DHT22;3925;48.636;9.516;2023-05-23T13:13:43;22.50;99.90
7762;DHT22;3925;48.636;9.516;2023-05-23T13:16:11;22.10;99.90
7762;DHT22;3925;48.636;9.516;2023-05-23T13:18:39;22.10;99.90
7762;DHT22;3925;48.636;9.516;2023-05-23T13:21:06;22.20;99.90
7762;DHT22;3925;48.636;9.516;2023-05-23T13:23:33;22.00;99.90
7762;DHT22;3925;48.636;9.516;2023-05-23T13:26:01;22.00;99.90
7762;DHT22;3925;48.636;9.516;2023-05-23T13:28:28;22.10;99.90
7762;DHT22;3925;48.636;9.516;2023-05-23T13:30:55;22.40;99.90
7762;DHT22;3925;48.636;9.516;2023-05-23T13:33:22;22.20;99.90
7762;DHT22;3925;48.636;9.516;2023-05-23T13:35:50;21.70;99.90
7762;DHT22;3925;48.636;9.516;2023-05-23T13:38:18;21.80;99.90
7762;DHT22;3925;48.636;9.516;2023-05-23T13:40:45;22.00;99.90
7762;DHT22;3925;48.636;9.516;2023-05-23T13:43:12;22.00;99.90
7762;DHT22;3925;48.636;9.516;2023-05-23T13:45:40;22.40;99.90
7762;DHT22;3925;48.636;9.516;2023-05-23T13:48:06;22.50;99.90
7762;DHT22;3925;48.636;9.516;2023-05-23T13:50:33;22.80;99.90
7762;DHT22;3925;48.636;9.516;2023-05-23T13:53:02;22.50;99.90
7762;DHT22;3925;48.636;9.516;2023-05-23T13:55:32;22.40;99.90
7762;DHT22;3925;48.636;9.516;2023-05-23T13:57:58;22.70;99.90
7762;DHT22;3925;48.636;9.516;2023-05-23T14:00:25;23.10;99.90
7762;DHT22;3925;48.636;9.516;2023-05-23T14:02:52;22.90;99.90
7762;DHT22;3925;48.636;9.516;2023-05-23T14:05:19;22.70;99.90
7762;DHT22;3925;48.636;9.516;2023-05-23T14:07:46;22.70;99.90
7762;DHT22;3925;48.636;9.516;2023-05-23T14:10:15;22.80;99.90
7762;DHT22;3925;48.636;9.516;2023-05-23T14:12:42;23.10;99.90
7762;DHT22;3925;48.636;9.516;2023-05-23T14:15:10;23.10;99.90
7762;DHT22;3925;48.636;9.516;2023-05-23T14:17:38;23.00;99.90
7762;DHT22;3925;48.636;9.516;2023-05-23T14:20:06;23.00;99.90
7762;DHT22;3925;48.636;9.516;2023-05-23T14:22:33;22.90;99.90
7762;DHT22;3925;48.636;9.516;2023-05-23T14:25:00;22.50;99.90
7762;DHT22;3925;48.636;9.516;2023-05-23T14:27:28;22.00;99.90
7762;DHT22;3925;48.636;9.516;2023-05-23T14:29:55;21.80;99.90
7762;DHT22;3925;48.636;9.516;2023-05-23T14:32:21;21.70;99.90
7762;DHT22;3925;48.636;9.516;2023-05-23T14:34:48;21.70;99.90
7762;DHT22;3925;48.636;9.516;2023-05-23T14:37:15;21.90;99.90
7762;DHT22;3925;48.636;9.516;2023-05-23T14:39:42;21.90;99.90
7762;DHT22;3925;48.636;9.516;2023-05-23T14:42:09;21.60;99.90
7762;DHT22;3925;48.636;9.516;2023-05-23T14:44:37;21.60;99.90
7762;DHT22;3925;48.636;9.516;2023-05-23T14:47:04;21.60;99.90
7762;DHT22;3925;48.636;9.516;2023-05-23T14:49:31;21.50;99.90
7762;DHT22;3925;48.636;9.516;2023-05-23T14:51:58;21.70;99.90
7762;DHT22;3925;48.636;9.516;2023-05-23T14:54:25;21.70;99.90
7762;DHT22;3925;48.636;9.516;2023-05-23T14:56:52;21.80;99.90
7762;DHT22;3925;48.636;9.516;2023-05-23T14:59:19;21.60;99.90
7762;DHT22;3925;48.636;9.516;2023-05-23T15:01:47;21.90;99.90
7762;DHT22;3925;48.636;9.516;2023-05-23T15:04:14;21.60;99.90
7762;DHT22;3925;48.636;9.516;2023-05-23T15:06:42;21.50;99.90
7762;DHT22;3925;48.636;9.516;2023-05-23T15:09:09;21.70;99.90
7762;DHT22;3925;48.636;9.516;2023-05-23T15:11:36;21.90;99.90
7762;DHT22;3925;48.636;9.516;2023-05-23T15:14:04;21.70;99.90
7762;DHT22;3925;48.636;9.516;2023-05-23T15:16:31;21.70;99.90
7762;DHT22;3925;48.636;9.516;2023-05-23T15:19:00;21.80;99.90
7762;DHT22;3925;48.636;9.516;2023-05-23T15:21:27;22.00;99.90
7762;DHT22;3925;48.636;9.516;2023-05-23T15:23:54;22.00;99.90
7762;DHT22;3925;48.636;9.516;2023-05-23T15:26:22;21.90;99.90
7762;DHT22;3925;48.636;9.516;2023-05-23T15:28:49;22.00;99.90
7762;DHT22;3925;48.636;9.516;2023-05-23T15:31:15;22.20;99.90
7762;DHT22;3925;48.636;9.516;2023-05-23T15:33:42;22.50;99.90
7762;DHT22;3925;48.636;9.516;2023-05-23T15:36:10;22.40;99.90
7762;DHT22;3925;48.636;9.516;2023-05-23T15:38:38;22.50;99.90
7762;DHT22;3925;48.636;9.516;2023-05-23T15:41:05;22.50;99.90
7762;DHT22;3925;48.636;9.516;2023-05-23T15:43:32;22.20;99.90
7762;DHT22;3925;48.636;9.516;2023-05-23T15:46:00;22.20;99.90
7762;DHT22;3925;48.636;9.516;2023-05-23T15:48:27;22.20;99.90
7762;DHT22;3925;48.636;9.516;2023-05-23T15:50:54;22.10;99.90
7762;DHT22;3925;48.636;9.516;2023-05-23T15:53:22;21.80;99.90
7762;DHT22;3925;48.636;9.516;2023-05-23T15:55:49;21.50;99.90
7762;DHT22;3925;48.636;9.516;2023-05-23T15:58:16;21.50;99.90
7762;DHT22;3925;48.636;9.516;2023-05-23T16:00:43;21.30;99.90
7762;DHT22;3925;48.636;9.516;2023-05-23T16:03:10;21.20;99.90
7762;DHT22;3925;48.636;9.516;2023-05-23T16:05:36;21.20;99.90
7762;DHT22;3925;48.636;9.516;2023-05-23T16:08:03;21.00;99.90